sensor_id;sensor_type;location;lat;lon;timestamp;temperature;humidity
22069;DHT22;13887;57.196;-2.100;2022-12-11T00:01:19;4.09;90.08
22069;DHT22;13887;57.196;-2.100;2022-12-11T00:03:47;4.10;89.74
22069;DHT22;13887;57.196;-2.100;2022-12-11T00:06:17;4.07;89.48
22069;DHT22;13887;57.196;-2.100;2022-12-11T00:08:44;4.06;88.91
22069;DHT22;13887;57.196;-2.100;2022-12-11T00:11:14;4.08;88.83
22069;DHT22;13887;57.196;-2.100;2022-12-11T00:13:42;4.05;88.73
22069;DHT22;13887;57.196;-2.100;2022-12-11T00:16:09;4.04;88.86
22069;DHT22;13887;57.196;-2.100;2022-12-11T00:18:36;4.07;88.45
22069;DHT22;13887;57.196;-2.100;2022-12-11T00:21:05;4.07;88.20
22069;DHT22;13887;57.196;-2.100;2022-12-11T00:23:36;4.04;87.86
22069;DHT22;13887;57.196;-2.100;2022-12-11T00:26:13;3.99;87.06
22069;DHT22;13887;57.196;-2.100;2022-12-11T00:28:42;4.04;86.97
22069;DHT22;13887;57.196;-2.100;2022-12-11T00:31:13;4.03;86.75
22069;DHT22;13887;57.196;-2.100;2022-12-11T00:33:42;4.05;86.77
22069;DHT22;13887;57.196;-2.100;2022-12-11T00:36:13;4.05;86.50
22069;DHT22;13887;57.196;-2.100;2022-12-11T00:38:41;4.03;86.10
22069;DHT22;13887;57.196;-2.100;2022-12-11T00:41:09;4.03;86.09
22069;DHT22;13887;57.196;-2.100;2022-12-11T00:43:36;4.03;85.64
22069;DHT22;13887;57.196;-2.100;2022-12-11T00:46:03;4.05;85.88
22069;DHT22;13887;57.196;-2.100;2022-12-11T00:48:30;4.06;85.87
22069;DHT22;13887;57.196;-2.100;2022-12-11T00:50:57;4.04;85.40
22069;DHT22;13887;57.196;-2.100;2022-12-11T00:53:24;4.05;85.92
22069;DHT22;13887;57.196;-2.100;2022-12-11T00:55:51;4.04;85.74
22069;DHT22;13887;57.196;-2.100;2022-12-11T00:58:19;4.05;85.86
22069;DHT22;13887;57.196;-2.100;2022-12-11T01:00:46;4.02;85.74
22069;DHT22;13887;57.196;-2.100;2022-12-11T01:03:15;4.03;85.71
22069;DHT22;13887;57.196;-2.100;2022-12-11T01:05:53;4.03;85.84
22069;DHT22;13887;57.196;-2.100;2022-12-11T01:08:20;4.04;86.03
22069;DHT22;13887;57.196;-2.100;2022-12-11T01:10:47;4.03;85.82
22069;DHT22;13887;57.196;-2.100;2022-12-11T01:13:14;4.00;85.96
22069;DHT22;13887;57.196;-2.100;2022-12-11T01:15:43;4.00;85.89
22069;DHT22;13887;57.196;-2.100;2022-12-11T01:18:12;3.99;85.88
22069;DHT22;13887;57.196;-2.100;2022-12-11T01:20:41;4.00;85.82
22069;DHT22;13887;57.196;-2.100;2022-12-11T01:23:10;3.99;85.83
22069;DHT22;13887;57.196;-2.100;2022-12-11T01:25:39;3.97;85.83
22069;DHT22;13887;57.196;-2.100;2022-12-11T01:28:07;3.99;85.48
22069;DHT22;13887;57.196;-2.100;2022-12-11T01:30:34;3.98;84.99
22069;DHT22;13887;57.196;-2.100;2022-12-11T01:33:01;3.98;84.55
22069;DHT22;13887;57.196;-2.100;2022-12-11T01:35:28;3.97;84.59
22069;DHT22;13887;57.196;-2.100;2022-12-11T01:37:55;3.98;84.55
22069;DHT22;13887;57.196;-2.100;2022-12-11T01:40:22;4.01;84.68
22069;DHT22;13887;57.196;-2.100;2022-12-11T01:42:49;3.99;84.35
22069;DHT22;13887;57.196;-2.100;2022-12-11T01:45:59;3.99;84.13
22069;DHT22;13887;57.196;-2.100;2022-12-11T01:48:23;3.99;83.80
22069;DHT22;13887;57.196;-2.100;2022-12-11T01:50:54;3.94;83.60
22069;DHT22;13887;57.196;-2.100;2022-12-11T01:53:25;3.93;83.07
22069;DHT22;13887;57.196;-2.100;2022-12-11T01:55:54;3.92;82.78
22069;DHT22;13887;57.196;-2.100;2022-12-11T01:58:24;3.89;82.35
22069;DHT22;13887;57.196;-2.100;2022-12-11T02:04:14;3.98;82.89
22069;DHT22;13887;57.196;-2.100;2022-12-11T02:06:47;3.97;82.27
22069;DHT22;13887;57.196;-2.100;2022-12-11T02:09:21;3.98;82.56
22069;DHT22;13887;57.196;-2.100;2022-12-11T02:14:22;3.98;82.38
22069;DHT22;13887;57.196;-2.100;2022-12-11T02:19:47;3.94;81.90
22069;DHT22;13887;57.196;-2.100;2022-12-11T02:28:30;3.93;80.72
22069;DHT22;13887;57.196;-2.100;2022-12-11T02:36:35;3.89;80.05
22069;DHT22;13887;57.196;-2.100;2022-12-11T02:39:04;3.86;79.83
22069;DHT22;13887;57.196;-2.100;2022-12-11T02:41:33;3.85;79.75
22069;DHT22;13887;57.196;-2.100;2022-12-11T02:44:02;3.85;80.09
22069;DHT22;13887;57.196;-2.100;2022-12-11T02:46:31;3.85;80.01
22069;DHT22;13887;57.196;-2.100;2022-12-11T02:49:02;3.84;80.24
22069;DHT22;13887;57.196;-2.100;2022-12-11T02:51:34;3.86;80.04
22069;DHT22;13887;57.196;-2.100;2022-12-11T02:54:02;3.87;80.06
22069;DHT22;13887;57.196;-2.100;2022-12-11T02:56:44;3.82;80.05
22069;DHT22;13887;57.196;-2.100;2022-12-11T02:59:19;3.85;80.06
22069;DHT22;13887;57.196;-2.100;2022-12-11T03:01:47;3.82;79.90
22069;DHT22;13887;57.196;-2.100;2022-12-11T03:04:14;3.87;80.24
22069;DHT22;13887;57.196;-2.100;2022-12-11T03:06:45;3.85;80.22
22069;DHT22;13887;57.196;-2.100;2022-12-11T03:09:14;3.83;80.34
22069;DHT22;13887;57.196;-2.100;2022-12-11T03:11:40;3.83;80.44
22069;DHT22;13887;57.196;-2.100;2022-12-11T03:14:07;3.83;80.66
22069;DHT22;13887;57.196;-2.100;2022-12-11T03:16:41;3.86;80.69
22069;DHT22;13887;57.196;-2.100;2022-12-11T03:19:36;3.86;81.07
22069;DHT22;13887;57.196;-2.100;2022-12-11T03:24:54;3.80;81.14
22069;DHT22;13887;57.196;-2.100;2022-12-11T03:27:56;3.79;81.36
22069;DHT22;13887;57.196;-2.100;2022-12-11T03:30:24;3.78;81.68
22069;DHT22;13887;57.196;-2.100;2022-12-11T03:32:55;3.80;81.57
22069;DHT22;13887;57.196;-2.100;2022-12-11T03:35:26;3.78;81.45
22069;DHT22;13887;57.196;-2.100;2022-12-11T03:38:00;3.77;81.62
22069;DHT22;13887;57.196;-2.100;2022-12-11T03:40:30;3.76;82.07
22069;DHT22;13887;57.196;-2.100;2022-12-11T03:42:59;3.74;81.90
22069;DHT22;13887;57.196;-2.100;2022-12-11T03:45:27;3.70;82.04
22069;DHT22;13887;57.196;-2.100;2022-12-11T03:47:57;3.73;82.07
22069;DHT22;13887;57.196;-2.100;2022-12-11T03:50:27;3.74;82.21
22069;DHT22;13887;57.196;-2.100;2022-12-11T03:52:57;3.71;81.97
22069;DHT22;13887;57.196;-2.100;2022-12-11T03:55:26;3.71;81.98
22069;DHT22;13887;57.196;-2.100;2022-12-11T03:57:53;3.68;81.91
22069;DHT22;13887;57.196;-2.100;2022-12-11T04:00:21;3.64;81.88
22069;DHT22;13887;57.196;-2.100;2022-12-11T04:02:49;3.67;82.07
22069;DHT22;13887;57.196;-2.100;2022-12-11T04:05:45;3.70;81.70
22069;DHT22;13887;57.196;-2.100;2022-12-11T04:08:12;3.64;81.30
22069;DHT22;13887;57.196;-2.100;2022-12-11T04:10:40;3.60;81.25
22069;DHT22;13887;57.196;-2.100;2022-12-11T04:13:08;3.58;81.05
22069;DHT22;13887;57.196;-2.100;2022-12-11T04:15:35;3.61;81.14
22069;DHT22;13887;57.196;-2.100;2022-12-11T04:18:06;3.56;80.42
22069;DHT22;13887;57.196;-2.100;2022-12-11T04:20:53;3.56;80.40
22069;DHT22;13887;57.196;-2.100;2022-12-11T04:23:39;3.55;80.60
22069;DHT22;13887;57.196;-2.100;2022-12-11T04:26:25;3.57;80.62
22069;DHT22;13887;57.196;-2.100;2022-12-11T04:28:51;3.58;80.32
22069;DHT22;13887;57.196;-2.100;2022-12-11T04:31:20;3.56;81.11
22069;DHT22;13887;57.196;-2.100;2022-12-11T04:33:48;3.55;81.12
22069;DHT22;13887;57.196;-2.100;2022-12-11T04:36:15;3.54;81.03
22069;DHT22;13887;57.196;-2.100;2022-12-11T04:38:42;3.53;80.99
22069;DHT22;13887;57.196;-2.100;2022-12-11T04:41:11;3.52;80.74
22069;DHT22;13887;57.196;-2.100;2022-12-11T04:43:39;3.54;80.44
22069;DHT22;13887;57.196;-2.100;2022-12-11T04:46:10;3.52;80.49
22069;DHT22;13887;57.196;-2.100;2022-12-11T04:48:38;3.52;80.57
22069;DHT22;13887;57.196;-2.100;2022-12-11T04:51:05;3.49;80.59
22069;DHT22;13887;57.196;-2.100;2022-12-11T04:53:33;3.54;80.96
22069;DHT22;13887;57.196;-2.100;2022-12-11T04:56:04;3.53;80.85
22069;DHT22;13887;57.196;-2.100;2022-12-11T04:58:31;3.55;80.82
22069;DHT22;13887;57.196;-2.100;2022-12-11T05:00:58;3.48;79.90
22069;DHT22;13887;57.196;-2.100;2022-12-11T05:03:25;3.46;80.62
22069;DHT22;13887;57.196;-2.100;2022-12-11T05:05:52;3.44;80.33
22069;DHT22;13887;57.196;-2.100;2022-12-11T05:08:20;3.44;80.53
22069;DHT22;13887;57.196;-2.100;2022-12-11T05:10:59;3.38;80.20
22069;DHT22;13887;57.196;-2.100;2022-12-11T05:13:27;3.40;80.61
22069;DHT22;13887;57.196;-2.100;2022-12-11T05:15:54;3.42;80.19
22069;DHT22;13887;57.196;-2.100;2022-12-11T05:18:22;3.36;80.36
22069;DHT22;13887;57.196;-2.100;2022-12-11T05:23:23;3.34;80.46
22069;DHT22;13887;57.196;-2.100;2022-12-11T05:25:54;3.36;80.51
22069;DHT22;13887;57.196;-2.100;2022-12-11T05:28:22;3.36;80.65
22069;DHT22;13887;57.196;-2.100;2022-12-11T05:30:55;3.36;80.80
22069;DHT22;13887;57.196;-2.100;2022-12-11T05:33:23;3.39;80.86
22069;DHT22;13887;57.196;-2.100;2022-12-11T05:35:50;3.39;80.88
22069;DHT22;13887;57.196;-2.100;2022-12-11T05:38:17;3.36;80.97
22069;DHT22;13887;57.196;-2.100;2022-12-11T05:40:54;3.34;80.45
22069;DHT22;13887;57.196;-2.100;2022-12-11T05:43:21;3.31;80.46
22069;DHT22;13887;57.196;-2.100;2022-12-11T05:45:48;3.33;80.56
22069;DHT22;13887;57.196;-2.100;2022-12-11T05:48:15;3.40;80.48
22069;DHT22;13887;57.196;-2.100;2022-12-11T05:50:42;3.35;80.30
22069;DHT22;13887;57.196;-2.100;2022-12-11T05:53:09;3.33;80.27
22069;DHT22;13887;57.196;-2.100;2022-12-11T05:55:36;3.35;80.38
22069;DHT22;13887;57.196;-2.100;2022-12-11T05:58:02;3.40;80.30
22069;DHT22;13887;57.196;-2.100;2022-12-11T06:00:29;3.40;80.25
22069;DHT22;13887;57.196;-2.100;2022-12-11T06:03:01;3.36;80.36
22069;DHT22;13887;57.196;-2.100;2022-12-11T06:05:28;3.33;80.49
22069;DHT22;13887;57.196;-2.100;2022-12-11T06:07:55;3.35;80.46
22069;DHT22;13887;57.196;-2.100;2022-12-11T06:10:22;3.36;80.34
22069;DHT22;13887;57.196;-2.100;2022-12-11T06:12:49;3.35;80.19
22069;DHT22;13887;57.196;-2.100;2022-12-11T06:15:16;3.36;80.55
22069;DHT22;13887;57.196;-2.100;2022-12-11T06:17:43;3.39;80.25
22069;DHT22;13887;57.196;-2.100;2022-12-11T06:20:10;3.36;80.49
22069;DHT22;13887;57.196;-2.100;2022-12-11T06:22:37;3.35;80.51
22069;DHT22;13887;57.196;-2.100;2022-12-11T06:25:04;3.33;80.45
22069;DHT22;13887;57.196;-2.100;2022-12-11T06:27:31;3.32;80.40
22069;DHT22;13887;57.196;-2.100;2022-12-11T06:29:58;3.34;80.47
22069;DHT22;13887;57.196;-2.100;2022-12-11T06:32:25;3.33;80.19
22069;DHT22;13887;57.196;-2.100;2022-12-11T06:34:52;3.33;80.14
22069;DHT22;13887;57.196;-2.100;2022-12-11T06:37:19;3.31;80.11
22069;DHT22;13887;57.196;-2.100;2022-12-11T06:39:46;3.30;80.23
22069;DHT22;13887;57.196;-2.100;2022-12-11T06:42:13;3.31;80.46
22069;DHT22;13887;57.196;-2.100;2022-12-11T06:44:42;3.28;80.45
22069;DHT22;13887;57.196;-2.100;2022-12-11T06:47:08;3.30;80.49
22069;DHT22;13887;57.196;-2.100;2022-12-11T06:49:35;3.28;80.43
22069;DHT22;13887;57.196;-2.100;2022-12-11T06:52:04;3.25;80.52
22069;DHT22;13887;57.196;-2.100;2022-12-11T06:54:31;3.20;80.20
22069;DHT22;13887;57.196;-2.100;2022-12-11T06:56:57;3.20;80.42
22069;DHT22;13887;57.196;-2.100;2022-12-11T06:59:24;3.23;80.68
22069;DHT22;13887;57.196;-2.100;2022-12-11T07:01:51;3.29;80.29
22069;DHT22;13887;57.196;-2.100;2022-12-11T07:04:18;3.26;80.23
22069;DHT22;13887;57.196;-2.100;2022-12-11T07:06:45;3.27;80.17
22069;DHT22;13887;57.196;-2.100;2022-12-11T07:09:13;3.26;80.30
22069;DHT22;13887;57.196;-2.100;2022-12-11T07:11:39;3.26;80.40
22069;DHT22;13887;57.196;-2.100;2022-12-11T07:14:07;3.23;80.17
22069;DHT22;13887;57.196;-2.100;2022-12-11T07:16:34;3.26;80.17
22069;DHT22;13887;57.196;-2.100;2022-12-11T07:19:01;3.27;80.40
22069;DHT22;13887;57.196;-2.100;2022-12-11T07:21:28;3.27;80.22
22069;DHT22;13887;57.196;-2.100;2022-12-11T07:23:55;3.26;80.25
22069;DHT22;13887;57.196;-2.100;2022-12-11T07:26:22;3.27;80.36
22069;DHT22;13887;57.196;-2.100;2022-12-11T07:28:49;3.27;80.47
22069;DHT22;13887;57.196;-2.100;2022-12-11T07:31:19;3.27;80.62
22069;DHT22;13887;57.196;-2.100;2022-12-11T07:33:47;3.23;80.95
22069;DHT22;13887;57.196;-2.100;2022-12-11T07:36:18;3.18;80.94
22069;DHT22;13887;57.196;-2.100;2022-12-11T07:38:44;3.17;80.99
22069;DHT22;13887;57.196;-2.100;2022-12-11T07:41:13;3.17;80.81
22069;DHT22;13887;57.196;-2.100;2022-12-11T07:43:41;3.13;80.96
22069;DHT22;13887;57.196;-2.100;2022-12-11T07:46:12;3.10;81.07
22069;DHT22;13887;57.196;-2.100;2022-12-11T07:48:40;3.16;80.81
22069;DHT22;13887;57.196;-2.100;2022-12-11T07:51:21;3.14;80.76
22069;DHT22;13887;57.196;-2.100;2022-12-11T07:53:51;3.13;81.20
22069;DHT22;13887;57.196;-2.100;2022-12-11T07:56:19;3.15;81.11
22069;DHT22;13887;57.196;-2.100;2022-12-11T07:58:46;3.11;81.31
22069;DHT22;13887;57.196;-2.100;2022-12-11T08:01:14;3.13;81.30
22069;DHT22;13887;57.196;-2.100;2022-12-11T08:03:43;3.14;81.23
22069;DHT22;13887;57.196;-2.100;2022-12-11T08:06:11;3.12;81.36
22069;DHT22;13887;57.196;-2.100;2022-12-11T08:08:38;3.08;81.49
22069;DHT22;13887;57.196;-2.100;2022-12-11T08:11:09;3.09;81.46
22069;DHT22;13887;57.196;-2.100;2022-12-11T08:13:36;3.09;81.62
22069;DHT22;13887;57.196;-2.100;2022-12-11T08:16:07;3.08;81.68
22069;DHT22;13887;57.196;-2.100;2022-12-11T08:18:35;3.10;81.68
22069;DHT22;13887;57.196;-2.100;2022-12-11T08:21:16;3.09;81.59
22069;DHT22;13887;57.196;-2.100;2022-12-11T08:23:44;3.09;81.70
22069;DHT22;13887;57.196;-2.100;2022-12-11T08:26:17;3.08;81.78
22069;DHT22;13887;57.196;-2.100;2022-12-11T08:28:44;3.04;81.96
22069;DHT22;13887;57.196;-2.100;2022-12-11T08:31:13;3.02;82.00
22069;DHT22;13887;57.196;-2.100;2022-12-11T08:33:41;3.03;81.99
22069;DHT22;13887;57.196;-2.100;2022-12-11T08:36:10;3.03;82.05
22069;DHT22;13887;57.196;-2.100;2022-12-11T08:38:37;3.04;82.02
22069;DHT22;13887;57.196;-2.100;2022-12-11T08:41:12;3.05;81.99
22069;DHT22;13887;57.196;-2.100;2022-12-11T08:43:39;3.04;81.97
22069;DHT22;13887;57.196;-2.100;2022-12-11T08:46:06;3.04;81.94
22069;DHT22;13887;57.196;-2.100;2022-12-11T08:48:35;2.99;82.01
22069;DHT22;13887;57.196;-2.100;2022-12-11T08:51:06;2.99;81.98
22069;DHT22;13887;57.196;-2.100;2022-12-11T08:53:33;2.97;81.88
22069;DHT22;13887;57.196;-2.100;2022-12-11T08:56:06;2.93;82.04
22069;DHT22;13887;57.196;-2.100;2022-12-11T08:58:33;2.95;82.12
22069;DHT22;13887;57.196;-2.100;2022-12-11T09:01:18;2.96;82.04
22069;DHT22;13887;57.196;-2.100;2022-12-11T09:03:48;2.95;82.02
22069;DHT22;13887;57.196;-2.100;2022-12-11T09:06:18;2.93;81.96
22069;DHT22;13887;57.196;-2.100;2022-12-11T09:08:46;2.90;82.17
22069;DHT22;13887;57.196;-2.100;2022-12-11T09:11:21;2.91;82.03
22069;DHT22;13887;57.196;-2.100;2022-12-11T09:13:48;2.89;82.11
22069;DHT22;13887;57.196;-2.100;2022-12-11T09:16:18;2.88;82.18
22069;DHT22;13887;57.196;-2.100;2022-12-11T09:18:46;2.83;82.27
22069;DHT22;13887;57.196;-2.100;2022-12-11T09:21:16;2.87;82.33
22069;DHT22;13887;57.196;-2.100;2022-12-11T09:23:43;2.88;82.33
22069;DHT22;13887;57.196;-2.100;2022-12-11T09:26:13;2.88;82.36
22069;DHT22;13887;57.196;-2.100;2022-12-11T09:28:41;2.89;82.36
22069;DHT22;13887;57.196;-2.100;2022-12-11T09:31:33;2.89;82.34
22069;DHT22;13887;57.196;-2.100;2022-12-11T09:34:05;2.86;82.49
22069;DHT22;13887;57.196;-2.100;2022-12-11T09:36:33;2.87;82.51
22069;DHT22;13887;57.196;-2.100;2022-12-11T09:39:02;2.87;82.50
22069;DHT22;13887;57.196;-2.100;2022-12-11T09:44:53;2.87;82.59
22069;DHT22;13887;57.196;-2.100;2022-12-11T09:47:35;2.85;82.73
22069;DHT22;13887;57.196;-2.100;2022-12-11T09:55:14;2.85;82.81
22069;DHT22;13887;57.196;-2.100;2022-12-11T10:00:38;2.89;82.75
22069;DHT22;13887;57.196;-2.100;2022-12-11T10:06:41;2.90;82.80
22069;DHT22;13887;57.196;-2.100;2022-12-11T10:09:18;2.90;82.88
22069;DHT22;13887;57.196;-2.100;2022-12-11T10:11:59;2.95;82.79
22069;DHT22;13887;57.196;-2.100;2022-12-11T10:17:17;2.93;82.89
22069;DHT22;13887;57.196;-2.100;2022-12-11T10:19:45;2.91;82.97
22069;DHT22;13887;57.196;-2.100;2022-12-11T10:22:42;2.95;82.93
22069;DHT22;13887;57.196;-2.100;2022-12-11T10:25:31;2.95;82.97
22069;DHT22;13887;57.196;-2.100;2022-12-11T10:28:01;2.96;83.11
22069;DHT22;13887;57.196;-2.100;2022-12-11T10:36:21;2.97;83.10
22069;DHT22;13887;57.196;-2.100;2022-12-11T10:38:51;2.97;83.10
22069;DHT22;13887;57.196;-2.100;2022-12-11T10:41:22;2.98;83.14
22069;DHT22;13887;57.196;-2.100;2022-12-11T10:43:52;2.93;83.29
22069;DHT22;13887;57.196;-2.100;2022-12-11T10:46:21;3.00;83.16
22069;DHT22;13887;57.196;-2.100;2022-12-11T10:48:53;2.96;83.33
22069;DHT22;13887;57.196;-2.100;2022-12-11T10:51:23;2.98;83.32
22069;DHT22;13887;57.196;-2.100;2022-12-11T10:53:52;2.99;83.26
22069;DHT22;13887;57.196;-2.100;2022-12-11T10:56:28;3.01;83.31
22069;DHT22;13887;57.196;-2.100;2022-12-11T10:58:57;3.01;83.25
22069;DHT22;13887;57.196;-2.100;2022-12-11T11:01:26;3.02;83.31
22069;DHT22;13887;57.196;-2.100;2022-12-11T11:04:14;3.00;83.40
22069;DHT22;13887;57.196;-2.100;2022-12-11T11:06:44;3.00;83.49
22069;DHT22;13887;57.196;-2.100;2022-12-11T11:09:30;2.99;83.54
22069;DHT22;13887;57.196;-2.100;2022-12-11T11:11:59;2.99;83.54
22069;DHT22;13887;57.196;-2.100;2022-12-11T11:14:33;2.98;83.63
22069;DHT22;13887;57.196;-2.100;2022-12-11T11:17:00;2.98;83.74
22069;DHT22;13887;57.196;-2.100;2022-12-11T11:19:32;2.99;83.65
22069;DHT22;13887;57.196;-2.100;2022-12-11T11:22:04;3.01;83.67
22069;DHT22;13887;57.196;-2.100;2022-12-11T11:24:37;3.01;83.75
22069;DHT22;13887;57.196;-2.100;2022-12-11T11:29:55;3.04;83.91
22069;DHT22;13887;57.196;-2.100;2022-12-11T11:32:37;3.05;83.84
22069;DHT22;13887;57.196;-2.100;2022-12-11T11:35:17;3.05;83.95
22069;DHT22;13887;57.196;-2.100;2022-12-11T11:37:53;3.05;84.07
22069;DHT22;13887;57.196;-2.100;2022-12-11T11:40:26;3.05;84.16
22069;DHT22;13887;57.196;-2.100;2022-12-11T11:43:20;3.04;84.45
22069;DHT22;13887;57.196;-2.100;2022-12-11T11:46:01;3.05;84.42
22069;DHT22;13887;57.196;-2.100;2022-12-11T11:51:15;3.08;84.64
22069;DHT22;13887;57.196;-2.100;2022-12-11T11:53:47;3.09;84.74
22069;DHT22;13887;57.196;-2.100;2022-12-11T11:58:56;3.12;84.64
22069;DHT22;13887;57.196;-2.100;2022-12-11T12:01:28;3.12;84.84
22069;DHT22;13887;57.196;-2.100;2022-12-11T12:03:55;3.15;84.74
22069;DHT22;13887;57.196;-2.100;2022-12-11T12:14:32;3.16;85.00
22069;DHT22;13887;57.196;-2.100;2022-12-11T12:23:22;3.14;85.29
22069;DHT22;13887;57.196;-2.100;2022-12-11T12:25:57;3.16;85.22
22069;DHT22;13887;57.196;-2.100;2022-12-11T12:34:07;3.16;85.29
22069;DHT22;13887;57.196;-2.100;2022-12-11T12:45:23;3.16;85.24
22069;DHT22;13887;57.196;-2.100;2022-12-11T12:47:51;3.13;85.35
22069;DHT22;13887;57.196;-2.100;2022-12-11T12:50:21;3.13;85.32
22069;DHT22;13887;57.196;-2.100;2022-12-11T12:52:50;3.13;85.36
22069;DHT22;13887;57.196;-2.100;2022-12-11T12:55:21;3.14;85.30
22069;DHT22;13887;57.196;-2.100;2022-12-11T12:57:50;3.10;85.43
22069;DHT22;13887;57.196;-2.100;2022-12-11T13:02:54;3.14;85.25
22069;DHT22;13887;57.196;-2.100;2022-12-11T13:05:29;3.12;85.36
22069;DHT22;13887;57.196;-2.100;2022-12-11T13:08:01;3.12;85.40
22069;DHT22;13887;57.196;-2.100;2022-12-11T13:10:33;3.12;85.31
22069;DHT22;13887;57.196;-2.100;2022-12-11T13:13:02;3.11;85.35
22069;DHT22;13887;57.196;-2.100;2022-12-11T13:15:33;3.11;85.43
22069;DHT22;13887;57.196;-2.100;2022-12-11T13:18:36;3.11;85.33
22069;DHT22;13887;57.196;-2.100;2022-12-11T13:21:24;3.13;85.30
22069;DHT22;13887;57.196;-2.100;2022-12-11T13:23:51;3.11;85.31
22069;DHT22;13887;57.196;-2.100;2022-12-11T13:26:30;3.14;85.25
22069;DHT22;13887;57.196;-2.100;2022-12-11T13:28:57;3.12;85.37
22069;DHT22;13887;57.196;-2.100;2022-12-11T13:31:31;3.10;85.33
22069;DHT22;13887;57.196;-2.100;2022-12-11T13:34:15;3.10;85.40
22069;DHT22;13887;57.196;-2.100;2022-12-11T13:36:51;3.13;85.35
22069;DHT22;13887;57.196;-2.100;2022-12-11T13:39:26;3.13;85.27
22069;DHT22;13887;57.196;-2.100;2022-12-11T13:41:58;3.12;85.31
22069;DHT22;13887;57.196;-2.100;2022-12-11T13:44:32;3.13;85.42
22069;DHT22;13887;57.196;-2.100;2022-12-11T13:47:02;3.13;85.32
22069;DHT22;13887;57.196;-2.100;2022-12-11T13:49:34;3.12;85.35
22069;DHT22;13887;57.196;-2.100;2022-12-11T13:52:02;3.11;85.36
22069;DHT22;13887;57.196;-2.100;2022-12-11T13:54:31;3.11;85.36
22069;DHT22;13887;57.196;-2.100;2022-12-11T13:59:39;3.09;85.42
22069;DHT22;13887;57.196;-2.100;2022-12-11T14:02:33;3.10;85.50
22069;DHT22;13887;57.196;-2.100;2022-12-11T14:05:08;3.12;85.48
22069;DHT22;13887;57.196;-2.100;2022-12-11T14:07:40;3.12;85.37
22069;DHT22;13887;57.196;-2.100;2022-12-11T14:10:29;3.13;85.37
22069;DHT22;13887;57.196;-2.100;2022-12-11T14:15:29;3.11;85.37
22069;DHT22;13887;57.196;-2.100;2022-12-11T14:17:57;3.11;85.46
22069;DHT22;13887;57.196;-2.100;2022-12-11T14:20:30;3.10;85.44
22069;DHT22;13887;57.196;-2.100;2022-12-11T14:23:07;3.09;85.43
22069;DHT22;13887;57.196;-2.100;2022-12-11T14:25:34;3.10;85.47
22069;DHT22;13887;57.196;-2.100;2022-12-11T14:28:02;3.11;85.39
22069;DHT22;13887;57.196;-2.100;2022-12-11T14:30:32;3.11;85.39
22069;DHT22;13887;57.196;-2.100;2022-12-11T14:33:03;3.10;85.45
22069;DHT22;13887;57.196;-2.100;2022-12-11T14:35:39;3.12;85.44
22069;DHT22;13887;57.196;-2.100;2022-12-11T14:38:46;3.09;85.35
22069;DHT22;13887;57.196;-2.100;2022-12-11T14:44:06;3.08;85.26
22069;DHT22;13887;57.196;-2.100;2022-12-11T14:46:49;3.08;85.47
22069;DHT22;13887;57.196;-2.100;2022-12-11T14:51:57;3.06;85.39
22069;DHT22;13887;57.196;-2.100;2022-12-11T14:54:31;3.06;85.34
22069;DHT22;13887;57.196;-2.100;2022-12-11T14:57:03;3.05;85.31
22069;DHT22;13887;57.196;-2.100;2022-12-11T14:59:39;3.05;85.19
22069;DHT22;13887;57.196;-2.100;2022-12-11T15:02:39;3.04;85.29
22069;DHT22;13887;57.196;-2.100;2022-12-11T15:05:17;3.05;85.29
22069;DHT22;13887;57.196;-2.100;2022-12-11T15:07:58;3.02;85.19
22069;DHT22;13887;57.196;-2.100;2022-12-11T15:10:37;3.02;85.33
22069;DHT22;13887;57.196;-2.100;2022-12-11T15:13:07;3.04;85.21
22069;DHT22;13887;57.196;-2.100;2022-12-11T15:15:44;3.01;85.18
22069;DHT22;13887;57.196;-2.100;2022-12-11T15:18:19;2.99;85.19
22069;DHT22;13887;57.196;-2.100;2022-12-11T15:21:09;2.99;85.29
22069;DHT22;13887;57.196;-2.100;2022-12-11T15:23:55;3.00;85.29
22069;DHT22;13887;57.196;-2.100;2022-12-11T15:26:38;2.98;85.30
22069;DHT22;13887;57.196;-2.100;2022-12-11T15:32:02;2.95;85.25
22069;DHT22;13887;57.196;-2.100;2022-12-11T15:34:32;2.95;85.23
22069;DHT22;13887;57.196;-2.100;2022-12-11T15:36:59;2.95;85.23
22069;DHT22;13887;57.196;-2.100;2022-12-11T15:39:26;2.96;85.16
22069;DHT22;13887;57.196;-2.100;2022-12-11T15:41:53;2.94;85.17
22069;DHT22;13887;57.196;-2.100;2022-12-11T15:44:21;2.91;85.18
22069;DHT22;13887;57.196;-2.100;2022-12-11T15:46:49;2.90;85.10
22069;DHT22;13887;57.196;-2.100;2022-12-11T15:49:16;2.90;85.14
22069;DHT22;13887;57.196;-2.100;2022-12-11T15:51:44;2.89;85.18
22069;DHT22;13887;57.196;-2.100;2022-12-11T15:54:11;2.91;85.18
22069;DHT22;13887;57.196;-2.100;2022-12-11T15:56:38;2.91;85.01
22069;DHT22;13887;57.196;-2.100;2022-12-11T15:59:05;2.93;85.05
22069;DHT22;13887;57.196;-2.100;2022-12-11T16:01:32;2.91;85.04
22069;DHT22;13887;57.196;-2.100;2022-12-11T16:04:00;2.90;84.98
22069;DHT22;13887;57.196;-2.100;2022-12-11T16:06:31;2.88;85.05
22069;DHT22;13887;57.196;-2.100;2022-12-11T16:08:58;2.91;85.01
22069;DHT22;13887;57.196;-2.100;2022-12-11T16:11:25;2.87;85.00
22069;DHT22;13887;57.196;-2.100;2022-12-11T16:13:52;2.88;85.04
22069;DHT22;13887;57.196;-2.100;2022-12-11T16:16:19;2.89;84.93
22069;DHT22;13887;57.196;-2.100;2022-12-11T16:18:49;2.88;84.97
22069;DHT22;13887;57.196;-2.100;2022-12-11T16:21:16;2.89;84.84
22069;DHT22;13887;57.196;-2.100;2022-12-11T16:23:47;2.87;84.79
22069;DHT22;13887;57.196;-2.100;2022-12-11T16:26:14;2.87;84.84
22069;DHT22;13887;57.196;-2.100;2022-12-11T16:28:41;2.88;84.83
22069;DHT22;13887;57.196;-2.100;2022-12-11T16:31:10;2.87;84.81
22069;DHT22;13887;57.196;-2.100;2022-12-11T16:33:38;2.87;84.81
22069;DHT22;13887;57.196;-2.100;2022-12-11T16:36:12;2.83;84.77
22069;DHT22;13887;57.196;-2.100;2022-12-11T16:38:39;2.85;84.71
22069;DHT22;13887;57.196;-2.100;2022-12-11T16:41:06;2.84;84.74
22069;DHT22;13887;57.196;-2.100;2022-12-11T16:43:33;2.83;84.71
22069;DHT22;13887;57.196;-2.100;2022-12-11T16:46:00;2.79;84.77
22069;DHT22;13887;57.196;-2.100;2022-12-11T16:48:27;2.83;84.68
22069;DHT22;13887;57.196;-2.100;2022-12-11T16:50:54;2.83;84.57
22069;DHT22;13887;57.196;-2.100;2022-12-11T16:53:21;2.80;84.54
22069;DHT22;13887;57.196;-2.100;2022-12-11T16:55:48;2.79;84.57
22069;DHT22;13887;57.196;-2.100;2022-12-11T16:58:16;2.80;84.58
22069;DHT22;13887;57.196;-2.100;2022-12-11T17:00:46;2.80;84.48
22069;DHT22;13887;57.196;-2.100;2022-12-11T17:03:14;2.82;84.33
22069;DHT22;13887;57.196;-2.100;2022-12-11T17:05:42;2.82;84.27
22069;DHT22;13887;57.196;-2.100;2022-12-11T17:08:11;2.82;84.14
22069;DHT22;13887;57.196;-2.100;2022-12-11T17:10:39;2.79;84.23
22069;DHT22;13887;57.196;-2.100;2022-12-11T17:13:06;2.80;84.12
22069;DHT22;13887;57.196;-2.100;2022-12-11T17:15:33;2.79;84.18
22069;DHT22;13887;57.196;-2.100;2022-12-11T17:18:04;2.78;84.12
22069;DHT22;13887;57.196;-2.100;2022-12-11T17:20:31;2.76;84.15
22069;DHT22;13887;57.196;-2.100;2022-12-11T17:23:00;2.76;84.03
22069;DHT22;13887;57.196;-2.100;2022-12-11T17:25:26;2.75;83.92
22069;DHT22;13887;57.196;-2.100;2022-12-11T17:27:54;2.75;83.84
22069;DHT22;13887;57.196;-2.100;2022-12-11T17:30:21;2.73;83.76
22069;DHT22;13887;57.196;-2.100;2022-12-11T17:32:48;2.69;83.87
22069;DHT22;13887;57.196;-2.100;2022-12-11T17:35:15;2.69;83.85